sensor_id;sensor_type;location;lat;lon;timestamp;P1;durP1;ratioP1;P2;durP2;ratioP2
870;SDS011;422;51.280;7.236;2023-04-01T00:02:13;5.93;;;2.00;;
870;SDS011;422;51.280;7.236;2023-04-01T00:04:40;5.90;;;2.60;;
870;SDS011;422;51.280;7.236;2023-04-01T00:07:08;4.27;;;1.60;;
870;SDS011;422;51.280;7.236;2023-04-01T00:09:37;2.97;;;1.67;;
870;SDS011;422;51.280;7.236;2023-04-01T00:12:04;3.53;;;2.07;;
870;SDS011;422;51.280;7.236;2023-04-01T00:14:32;4.40;;;2.70;;
870;SDS011;422;51.280;7.236;2023-04-01T00:16:59;3.20;;;1.77;;
870;SDS011;422;51.280;7.236;2023-04-01T00:19:27;2.57;;;1.67;;
870;SDS011;422;51.280;7.236;2023-04-01T00:21:54;5.57;;;1.70;;
870;SDS011;422;51.280;7.236;2023-04-01T00:24:22;2.10;;;1.70;;
870;SDS011;422;51.280;7.236;2023-04-01T00:26:50;2.57;;;1.90;;
870;SDS011;422;51.280;7.236;2023-04-01T00:29:17;3.00;;;1.40;;
870;SDS011;422;51.280;7.236;2023-04-01T00:31:45;3.27;;;1.77;;
870;SDS011;422;51.280;7.236;2023-04-01T00:34:13;2.37;;;2.00;;
870;SDS011;422;51.280;7.236;2023-04-01T00:36:40;2.67;;;1.57;;
870;SDS011;422;51.280;7.236;2023-04-01T00:39:07;3.63;;;1.73;;
870;SDS011;422;51.280;7.236;2023-04-01T00:41:35;2.90;;;1.93;;
870;SDS011;422;51.280;7.236;2023-04-01T00:44:15;2.93;;;2.73;;
870;SDS011;422;51.280;7.236;2023-04-01T00:46:44;2.87;;;1.50;;
870;SDS011;422;51.280;7.236;2023-04-01T00:49:11;3.20;;;1.70;;
870;SDS011;422;51.280;7.236;2023-04-01T00:51:39;4.27;;;2.03;;
870;SDS011;422;51.280;7.236;2023-04-01T00:54:08;4.50;;;1.80;;
870;SDS011;422;51.280;7.236;2023-04-01T00:56:36;2.63;;;1.77;;
870;SDS011;422;51.280;7.236;2023-04-01T00:59:08;2.77;;;1.90;;
870;SDS011;422;51.280;7.236;2023-04-01T01:01:39;2.80;;;1.77;;
870;SDS011;422;51.280;7.236;2023-04-01T01:04:07;4.03;;;2.03;;
870;SDS011;422;51.280;7.236;2023-04-01T01:06:47;2.73;;;1.73;;
870;SDS011;422;51.280;7.236;2023-04-01T01:09:29;3.07;;;1.63;;
870;SDS011;422;51.280;7.236;2023-04-01T01:12:05;3.60;;;1.80;;
870;SDS011;422;51.280;7.236;2023-04-01T01:14:40;3.47;;;1.90;;
870;SDS011;422;51.280;7.236;2023-04-01T01:17:22;3.10;;;1.70;;
870;SDS011;422;51.280;7.236;2023-04-01T01:23:12;4.00;;;2.10;;
870;SDS011;422;51.280;7.236;2023-04-01T01:29:13;2.93;;;1.57;;
870;SDS011;422;51.280;7.236;2023-04-01T01:32:05;5.53;;;2.47;;
870;SDS011;422;51.280;7.236;2023-04-01T01:34:40;5.03;;;2.10;;
870;SDS011;422;51.280;7.236;2023-04-01T01:37:17;2.97;;;1.60;;
870;SDS011;422;51.280;7.236;2023-04-01T01:39:48;4.77;;;2.20;;
870;SDS011;422;51.280;7.236;2023-04-01T01:42:19;3.90;;;1.60;;
870;SDS011;422;51.280;7.236;2023-04-01T01:44:50;2.97;;;1.73;;
870;SDS011;422;51.280;7.236;2023-04-01T01:47:20;3.03;;;1.90;;
870;SDS011;422;51.280;7.236;2023-04-01T01:49:48;3.67;;;1.60;;
870;SDS011;422;51.280;7.236;2023-04-01T01:52:18;3.07;;;1.40;;
870;SDS011;422;51.280;7.236;2023-04-01T01:54:47;3.00;;;1.80;;
870;SDS011;422;51.280;7.236;2023-04-01T01:57:14;2.83;;;1.60;;
870;SDS011;422;51.280;7.236;2023-04-01T01:59:42;3.30;;;1.50;;
870;SDS011;422;51.280;7.236;2023-04-01T02:02:11;3.13;;;1.90;;
870;SDS011;422;51.280;7.236;2023-04-01T02:04:42;6.40;;;2.07;;
870;SDS011;422;51.280;7.236;2023-04-01T02:07:13;3.50;;;2.00;;
870;SDS011;422;51.280;7.236;2023-04-01T02:09:45;3.17;;;1.73;;
870;SDS011;422;51.280;7.236;2023-04-01T02:12:14;2.90;;;2.20;;
870;SDS011;422;51.280;7.236;2023-04-01T02:14:43;2.50;;;1.83;;
870;SDS011;422;51.280;7.236;2023-04-01T02:17:16;3.40;;;2.10;;
870;SDS011;422;51.280;7.236;2023-04-01T02:19:46;4.00;;;1.80;;
870;SDS011;422;51.280;7.236;2023-04-01T02:22:17;3.00;;;1.93;;
870;SDS011;422;51.280;7.236;2023-04-01T02:24:49;5.33;;;1.83;;
870;SDS011;422;51.280;7.236;2023-04-01T02:27:19;3.40;;;1.47;;
870;SDS011;422;51.280;7.236;2023-04-01T02:29:47;2.30;;;1.50;;
870;SDS011;422;51.280;7.236;2023-04-01T02:32:14;4.03;;;1.77;;
870;SDS011;422;51.280;7.236;2023-04-01T02:34:42;3.17;;;1.97;;
870;SDS011;422;51.280;7.236;2023-04-01T02:37:10;6.13;;;2.10;;
870;SDS011;422;51.280;7.236;2023-04-01T02:39:38;2.67;;;1.93;;
870;SDS011;422;51.280;7.236;2023-04-01T02:42:06;2.50;;;1.70;;
870;SDS011;422;51.280;7.236;2023-04-01T02:44:34;3.10;;;1.57;;
870;SDS011;422;51.280;7.236;2023-04-01T02:47:01;2.57;;;1.80;;
870;SDS011;422;51.280;7.236;2023-04-01T02:49:28;2.53;;;1.40;;
870;SDS011;422;51.280;7.236;2023-04-01T02:51:56;2.97;;;1.53;;
870;SDS011;422;51.280;7.236;2023-04-01T02:54:23;2.50;;;1.87;;
870;SDS011;422;51.280;7.236;2023-04-01T02:56:50;2.47;;;1.60;;
870;SDS011;422;51.280;7.236;2023-04-01T02:59:18;2.40;;;1.67;;
870;SDS011;422;51.280;7.236;2023-04-01T03:01:45;2.13;;;1.23;;
870;SDS011;422;51.280;7.236;2023-04-01T03:04:12;2.30;;;1.67;;
870;SDS011;422;51.280;7.236;2023-04-01T03:06:40;4.93;;;1.63;;
870;SDS011;422;51.280;7.236;2023-04-01T03:09:07;5.33;;;1.50;;
870;SDS011;422;51.280;7.236;2023-04-01T03:11:34;2.73;;;1.70;;
870;SDS011;422;51.280;7.236;2023-04-01T03:14:01;2.50;;;1.30;;
870;SDS011;422;51.280;7.236;2023-04-01T03:16:30;2.33;;;1.63;;
870;SDS011;422;51.280;7.236;2023-04-01T03:18:57;3.20;;;1.50;;
870;SDS011;422;51.280;7.236;2023-04-01T03:21:27;3.90;;;1.70;;
870;SDS011;422;51.280;7.236;2023-04-01T03:23:54;2.77;;;1.43;;
870;SDS011;422;51.280;7.236;2023-04-01T03:26:21;3.50;;;1.60;;
870;SDS011;422;51.280;7.236;2023-04-01T03:28:48;2.77;;;1.60;;
870;SDS011;422;51.280;7.236;2023-04-01T03:31:16;8.40;;;1.50;;
870;SDS011;422;51.280;7.236;2023-04-01T03:33:45;4.57;;;1.70;;
870;SDS011;422;51.280;7.236;2023-04-01T03:36:13;2.10;;;1.60;;
870;SDS011;422;51.280;7.236;2023-04-01T03:38:40;2.30;;;1.60;;
870;SDS011;422;51.280;7.236;2023-04-01T03:41:11;2.50;;;1.73;;
870;SDS011;422;51.280;7.236;2023-04-01T03:43:38;3.17;;;1.93;;
870;SDS011;422;51.280;7.236;2023-04-01T03:46:06;3.53;;;1.70;;
870;SDS011;422;51.280;7.236;2023-04-01T03:48:33;3.10;;;2.27;;
870;SDS011;422;51.280;7.236;2023-04-01T03:51:02;3.37;;;2.23;;
870;SDS011;422;51.280;7.236;2023-04-01T03:53:33;3.33;;;2.30;;
870;SDS011;422;51.280;7.236;2023-04-01T03:56:03;3.07;;;2.07;;
870;SDS011;422;51.280;7.236;2023-04-01T03:58:30;5.17;;;2.20;;
870;SDS011;422;51.280;7.236;2023-04-01T04:00:58;2.53;;;1.80;;
870;SDS011;422;51.280;7.236;2023-04-01T04:03:25;3.73;;;2.10;;
870;SDS011;422;51.280;7.236;2023-04-01T04:05:53;2.60;;;1.70;;
870;SDS011;422;51.280;7.236;2023-04-01T04:08:22;4.70;;;2.00;;
870;SDS011;422;51.280;7.236;2023-04-01T04:10:54;3.23;;;2.00;;
870;SDS011;422;51.280;7.236;2023-04-01T04:13:21;3.00;;;2.67;;
870;SDS011;422;51.280;7.236;2023-04-01T04:15:49;2.70;;;2.50;;
870;SDS011;422;51.280;7.236;2023-04-01T04:18:16;5.90;;;2.73;;
870;SDS011;422;51.280;7.236;2023-04-01T04:20:43;3.20;;;2.73;;
870;SDS011;422;51.280;7.236;2023-04-01T04:23:13;2.90;;;2.60;;
870;SDS011;422;51.280;7.236;2023-04-01T04:25:42;3.23;;;2.70;;
870;SDS011;422;51.280;7.236;2023-04-01T04:28:20;2.80;;;2.60;;
870;SDS011;422;51.280;7.236;2023-04-01T04:30:47;2.60;;;2.17;;
870;SDS011;422;51.280;7.236;2023-04-01T04:33:14;3.20;;;2.20;;
870;SDS011;422;51.280;7.236;2023-04-01T04:35:41;4.53;;;2.87;;
870;SDS011;422;51.280;7.236;2023-04-01T04:38:08;2.90;;;2.50;;
870;SDS011;422;51.280;7.236;2023-04-01T04:40:35;2.40;;;2.20;;
870;SDS011;422;51.280;7.236;2023-04-01T04:43:04;3.33;;;2.73;;
870;SDS011;422;51.280;7.236;2023-04-01T04:45:32;3.53;;;2.93;;
870;SDS011;422;51.280;7.236;2023-04-01T04:47:59;3.33;;;3.03;;
870;SDS011;422;51.280;7.236;2023-04-01T04:50:26;2.90;;;2.60;;
870;SDS011;422;51.280;7.236;2023-04-01T04:52:53;2.77;;;2.47;;
870;SDS011;422;51.280;7.236;2023-04-01T04:55:20;3.37;;;2.80;;
870;SDS011;422;51.280;7.236;2023-04-01T04:57:47;2.97;;;2.67;;
870;SDS011;422;51.280;7.236;2023-04-01T05:00:17;3.50;;;2.43;;
870;SDS011;422;51.280;7.236;2023-04-01T05:02:44;3.00;;;2.30;;
870;SDS011;422;51.280;7.236;2023-04-01T05:05:11;2.97;;;2.20;;
870;SDS011;422;51.280;7.236;2023-04-01T05:07:38;2.53;;;2.03;;
870;SDS011;422;51.280;7.236;2023-04-01T05:10:06;3.20;;;2.73;;
870;SDS011;422;51.280;7.236;2023-04-01T05:12:33;6.13;;;3.17;;
870;SDS011;422;51.280;7.236;2023-04-01T05:15:04;2.80;;;2.60;;
870;SDS011;422;51.280;7.236;2023-04-01T05:17:33;2.73;;;2.40;;
870;SDS011;422;51.280;7.236;2023-04-01T05:20:00;2.73;;;2.47;;
870;SDS011;422;51.280;7.236;2023-04-01T05:22:31;2.60;;;2.20;;
870;SDS011;422;51.280;7.236;2023-04-01T05:24:58;3.37;;;2.50;;
870;SDS011;422;51.280;7.236;2023-04-01T05:27:25;2.50;;;2.30;;
870;SDS011;422;51.280;7.236;2023-04-01T05:29:52;3.00;;;2.53;;
870;SDS011;422;51.280;7.236;2023-04-01T05:32:20;3.37;;;2.60;;
870;SDS011;422;51.280;7.236;2023-04-01T05:34:51;3.07;;;2.77;;
870;SDS011;422;51.280;7.236;2023-04-01T05:37:21;4.37;;;3.70;;
870;SDS011;422;51.280;7.236;2023-04-01T05:39:49;2.80;;;2.27;;
870;SDS011;422;51.280;7.236;2023-04-01T05:42:16;4.63;;;3.53;;
870;SDS011;422;51.280;7.236;2023-04-01T05:44:43;2.87;;;2.67;;
870;SDS011;422;51.280;7.236;2023-04-01T05:47:10;3.23;;;2.87;;
870;SDS011;422;51.280;7.236;2023-04-01T05:49:37;4.20;;;3.30;;
870;SDS011;422;51.280;7.236;2023-04-01T05:52:06;2.93;;;2.23;;
870;SDS011;422;51.280;7.236;2023-04-01T05:54:34;2.73;;;2.43;;
870;SDS011;422;51.280;7.236;2023-04-01T05:57:01;2.87;;;2.20;;
870;SDS011;422;51.280;7.236;2023-04-01T05:59:28;2.40;;;2.10;;
870;SDS011;422;51.280;7.236;2023-04-01T06:01:56;3.40;;;2.27;;
870;SDS011;422;51.280;7.236;2023-04-01T06:04:23;3.00;;;2.70;;
870;SDS011;422;51.280;7.236;2023-04-01T06:06:50;2.50;;;1.70;;
870;SDS011;422;51.280;7.236;2023-04-01T06:09:19;2.47;;;2.07;;
870;SDS011;422;51.280;7.236;2023-04-01T06:12:04;2.30;;;2.00;;
870;SDS011;422;51.280;7.236;2023-04-01T06:14:52;2.40;;;1.60;;
870;SDS011;422;51.280;7.236;2023-04-01T06:17:26;4.10;;;1.90;;
870;SDS011;422;51.280;7.236;2023-04-01T06:20:03;4.20;;;1.80;;
870;SDS011;422;51.280;7.236;2023-04-01T06:22:45;2.43;;;1.60;;
870;SDS011;422;51.280;7.236;2023-04-01T06:25:41;2.07;;;1.70;;
870;SDS011;422;51.280;7.236;2023-04-01T06:28:29;3.07;;;1.70;;
870;SDS011;422;51.280;7.236;2023-04-01T06:31:16;2.10;;;1.50;;
870;SDS011;422;51.280;7.236;2023-04-01T06:34:06;4.50;;;2.63;;
870;SDS011;422;51.280;7.236;2023-04-01T06:36:53;3.63;;;2.00;;
870;SDS011;422;51.280;7.236;2023-04-01T06:39:37;3.30;;;1.67;;
870;SDS011;422;51.280;7.236;2023-04-01T06:45:27;2.50;;;1.50;;
870;SDS011;422;51.280;7.236;2023-04-01T06:48:10;3.00;;;2.13;;
870;SDS011;422;51.280;7.236;2023-04-01T06:50:52;2.27;;;1.90;;
870;SDS011;422;51.280;7.236;2023-04-01T06:53:25;3.03;;;2.30;;
870;SDS011;422;51.280;7.236;2023-04-01T06:56:00;2.70;;;2.17;;
870;SDS011;422;51.280;7.236;2023-04-01T06:58:35;3.47;;;2.17;;
870;SDS011;422;51.280;7.236;2023-04-01T07:01:06;3.00;;;2.43;;
870;SDS011;422;51.280;7.236;2023-04-01T07:03:38;2.53;;;2.03;;
870;SDS011;422;51.280;7.236;2023-04-01T07:06:09;2.97;;;2.40;;
870;SDS011;422;51.280;7.236;2023-04-01T07:08:40;2.70;;;2.30;;
870;SDS011;422;51.280;7.236;2023-04-01T07:11:11;2.40;;;1.60;;
870;SDS011;422;51.280;7.236;2023-04-01T07:13:49;2.30;;;2.00;;
870;SDS011;422;51.280;7.236;2023-04-01T07:16:20;2.87;;;2.10;;
870;SDS011;422;51.280;7.236;2023-04-01T07:18:52;2.20;;;1.60;;
870;SDS011;422;51.280;7.236;2023-04-01T07:21:25;2.23;;;1.60;;
870;SDS011;422;51.280;7.236;2023-04-01T07:23:56;1.97;;;1.43;;
870;SDS011;422;51.280;7.236;2023-04-01T07:26:29;3.10;;;2.13;;
870;SDS011;422;51.280;7.236;2023-04-01T07:28:58;2.30;;;1.87;;
870;SDS011;422;51.280;7.236;2023-04-01T07:31:30;2.20;;;1.70;;
870;SDS011;422;51.280;7.236;2023-04-01T07:34:12;2.00;;;1.50;;
870;SDS011;422;51.280;7.236;2023-04-01T07:36:47;2.50;;;1.90;;
870;SDS011;422;51.280;7.236;2023-04-01T07:39:24;2.10;;;1.87;;
870;SDS011;422;51.280;7.236;2023-04-01T07:42:01;2.83;;;1.70;;
870;SDS011;422;51.280;7.236;2023-04-01T07:44:38;3.47;;;2.13;;
870;SDS011;422;51.280;7.236;2023-04-01T07:47:19;2.57;;;1.93;;
870;SDS011;422;51.280;7.236;2023-04-01T07:50:00;2.43;;;1.90;;
870;SDS011;422;51.280;7.236;2023-04-01T07:52:36;4.03;;;1.90;;
870;SDS011;422;51.280;7.236;2023-04-01T07:55:10;3.43;;;1.87;;
870;SDS011;422;51.280;7.236;2023-04-01T07:57:43;2.40;;;1.90;;
870;SDS011;422;51.280;7.236;2023-04-01T08:00:19;3.40;;;2.30;;
870;SDS011;422;51.280;7.236;2023-04-01T08:02:57;2.90;;;2.30;;
870;SDS011;422;51.280;7.236;2023-04-01T08:05:40;3.23;;;2.93;;
870;SDS011;422;51.280;7.236;2023-04-01T08:08:16;2.73;;;2.50;;
870;SDS011;422;51.280;7.236;2023-04-01T08:10:54;3.80;;;2.97;;
870;SDS011;422;51.280;7.236;2023-04-01T08:13:28;2.97;;;2.60;;
870;SDS011;422;51.280;7.236;2023-04-01T08:16:08;3.10;;;2.80;;
870;SDS011;422;51.280;7.236;2023-04-01T08:18:44;3.53;;;3.20;;
870;SDS011;422;51.280;7.236;2023-04-01T08:21:20;3.00;;;2.67;;
870;SDS011;422;51.280;7.236;2023-04-01T08:23:51;4.60;;;2.73;;
870;SDS011;422;51.280;7.236;2023-04-01T08:26:23;3.10;;;2.80;;
870;SDS011;422;51.280;7.236;2023-04-01T08:28:58;3.50;;;3.00;;
870;SDS011;422;51.280;7.236;2023-04-01T08:31:31;3.00;;;2.70;;
870;SDS011;422;51.280;7.236;2023-04-01T08:34:03;3.30;;;2.80;;
870;SDS011;422;51.280;7.236;2023-04-01T08:36:36;2.67;;;2.33;;
870;SDS011;422;51.280;7.236;2023-04-01T08:39:06;2.77;;;2.33;;
870;SDS011;422;51.280;7.236;2023-04-01T08:44:49;3.33;;;2.67;;
870;SDS011;422;51.280;7.236;2023-04-01T08:47:37;4.40;;;3.10;;
870;SDS011;422;51.280;7.236;2023-04-01T08:50:31;2.57;;;2.27;;
870;SDS011;422;51.280;7.236;2023-04-01T08:53:12;4.90;;;3.00;;
870;SDS011;422;51.280;7.236;2023-04-01T08:55:45;3.57;;;3.27;;
870;SDS011;422;51.280;7.236;2023-04-01T09:01:25;3.10;;;2.40;;
870;SDS011;422;51.280;7.236;2023-04-01T09:04:08;3.37;;;3.00;;
870;SDS011;422;51.280;7.236;2023-04-01T09:06:52;3.10;;;2.50;;
870;SDS011;422;51.280;7.236;2023-04-01T09:09:53;2.67;;;2.33;;
870;SDS011;422;51.280;7.236;2023-04-01T09:21:33;2.90;;;2.47;;
870;SDS011;422;51.280;7.236;2023-04-01T09:24:37;3.10;;;2.37;;
870;SDS011;422;51.280;7.236;2023-04-01T09:27:25;3.53;;;3.23;;
870;SDS011;422;51.280;7.236;2023-04-01T09:30:06;4.10;;;3.70;;
870;SDS011;422;51.280;7.236;2023-04-01T09:33:07;4.57;;;4.17;;
870;SDS011;422;51.280;7.236;2023-04-01T09:36:07;3.90;;;3.50;;
870;SDS011;422;51.280;7.236;2023-04-01T09:38:52;3.97;;;3.47;;
870;SDS011;422;51.280;7.236;2023-04-01T09:41:27;5.43;;;4.63;;
870;SDS011;422;51.280;7.236;2023-04-01T09:44:08;4.43;;;4.03;;
870;SDS011;422;51.280;7.236;2023-04-01T09:46:48;4.97;;;4.47;;
870;SDS011;422;51.280;7.236;2023-04-01T09:52:32;5.90;;;5.30;;
870;SDS011;422;51.280;7.236;2023-04-01T09:55:26;6.53;;;5.93;;
870;SDS011;422;51.280;7.236;2023-04-01T10:01:42;9.07;;;6.53;;
870;SDS011;422;51.280;7.236;2023-04-01T10:04:35;7.53;;;6.83;;
870;SDS011;422;51.280;7.236;2023-04-01T10:13:57;7.77;;;7.00;;
870;SDS011;422;51.280;7.236;2023-04-01T10:17:13;7.80;;;7.00;;
870;SDS011;422;51.280;7.236;2023-04-01T10:20:22;8.77;;;7.87;;
870;SDS011;422;51.280;7.236;2023-04-01T10:23:22;8.30;;;7.50;;
870;SDS011;422;51.280;7.236;2023-04-01T10:32:33;6.00;;;5.30;;
870;SDS011;422;51.280;7.236;2023-04-01T10:35:28;6.93;;;5.10;;
870;SDS011;422;51.280;7.236;2023-04-01T10:54:19;8.83;;;7.93;;
870;SDS011;422;51.280;7.236;2023-04-01T10:57:02;7.30;;;6.50;;
870;SDS011;422;51.280;7.236;2023-04-01T11:03:14;6.50;;;5.90;;
870;SDS011;422;51.280;7.236;2023-04-01T11:12:18;5.20;;;4.73;;
870;SDS011;422;51.280;7.236;2023-04-01T11:15:20;5.20;;;4.10;;
870;SDS011;422;51.280;7.236;2023-04-01T11:18:22;4.90;;;4.40;;
870;SDS011;422;51.280;7.236;2023-04-01T11:24:35;7.60;;;4.70;;
870;SDS011;422;51.280;7.236;2023-04-01T11:27:28;6.67;;;4.30;;
870;SDS011;422;51.280;7.236;2023-04-01T11:30:15;4.30;;;3.90;;
870;SDS011;422;51.280;7.236;2023-04-01T11:33:07;5.97;;;5.40;;
870;SDS011;422;51.280;7.236;2023-04-01T11:38:44;5.13;;;4.63;;
870;SDS011;422;51.280;7.236;2023-04-01T11:41:38;6.50;;;4.63;;
870;SDS011;422;51.280;7.236;2023-04-01T11:44:18;3.90;;;3.50;;
870;SDS011;422;51.280;7.236;2023-04-01T11:47:01;4.80;;;3.80;;
870;SDS011;422;51.280;7.236;2023-04-01T11:49:44;9.83;;;8.90;;
870;SDS011;422;51.280;7.236;2023-04-01T11:52:31;6.13;;;5.53;;
870;SDS011;422;51.280;7.236;2023-04-01T11:55:19;5.63;;;5.13;;
870;SDS011;422;51.280;7.236;2023-04-01T11:58:06;4.83;;;4.37;;
870;SDS011;422;51.280;7.236;2023-04-01T12:00:57;5.20;;;4.10;;
870;SDS011;422;51.280;7.236;2023-04-01T12:03:54;8.03;;;5.13;;
870;SDS011;422;51.280;7.236;2023-04-01T12:06:41;5.30;;;4.80;;
870;SDS011;422;51.280;7.236;2023-04-01T12:09:17;6.20;;;5.60;;
870;SDS011;422;51.280;7.236;2023-04-01T12:11:56;6.13;;;5.47;;
870;SDS011;422;51.280;7.236;2023-04-01T12:14:34;5.13;;;4.60;;
870;SDS011;422;51.280;7.236;2023-04-01T12:17:25;5.83;;;5.30;;
870;SDS011;422;51.280;7.236;2023-04-01T12:19:59;5.67;;;5.07;;
870;SDS011;422;51.280;7.236;2023-04-01T12:22:41;5.13;;;4.70;;
870;SDS011;422;51.280;7.236;2023-04-01T12:25:27;6.37;;;5.13;;
870;SDS011;422;51.280;7.236;2023-04-01T12:28:20;5.20;;;4.70;;
870;SDS011;422;51.280;7.236;2023-04-01T12:30:59;5.93;;;5.37;;
870;SDS011;422;51.280;7.236;2023-04-01T12:33:47;6.47;;;5.30;;
870;SDS011;422;51.280;7.236;2023-04-01T12:36:50;6.07;;;5.43;;
870;SDS011;422;51.280;7.236;2023-04-01T12:39:34;6.00;;;5.27;;
870;SDS011;422;51.280;7.236;2023-04-01T12:42:23;9.10;;;6.40;;
870;SDS011;422;51.280;7.236;2023-04-01T12:45:17;8.00;;;7.17;;
870;SDS011;422;51.280;7.236;2023-04-01T12:48:06;6.20;;;5.60;;
870;SDS011;422;51.280;7.236;2023-04-01T12:54:02;9.10;;;7.50;;
870;SDS011;422;51.280;7.236;2023-04-01T12:56:43;7.60;;;6.80;;
870;SDS011;422;51.280;7.236;2023-04-01T13:02:19;8.53;;;7.73;;
870;SDS011;422;51.280;7.236;2023-04-01T13:05:01;8.70;;;7.80;;
870;SDS011;422;51.280;7.236;2023-04-01T13:07:46;9.30;;;8.30;;
870;SDS011;422;51.280;7.236;2023-04-01T13:10:29;9.87;;;8.70;;
870;SDS011;422;51.280;7.236;2023-04-01T13:16:38;9.50;;;8.60;;
870;SDS011;422;51.280;7.236;2023-04-01T13:19:09;10.27;;;9.27;;
870;SDS011;422;51.280;7.236;2023-04-01T13:21:44;10.37;;;9.30;;
870;SDS011;422;51.280;7.236;2023-04-01T13:24:28;9.70;;;8.30;;
870;SDS011;422;51.280;7.236;2023-04-01T13:27:07;9.60;;;8.17;;
870;SDS011;422;51.280;7.236;2023-04-01T13:29:41;10.10;;;9.10;;
870;SDS011;422;51.280;7.236;2023-04-01T13:32:18;11.20;;;9.97;;
870;SDS011;422;51.280;7.236;2023-04-01T13:34:59;11.60;;;9.27;;
870;SDS011;422;51.280;7.236;2023-04-01T13:37:44;9.87;;;8.80;;
870;SDS011;422;51.280;7.236;2023-04-01T13:40:34;10.20;;;9.20;;
870;SDS011;422;51.280;7.236;2023-04-01T13:43:08;10.67;;;9.23;;
870;SDS011;422;51.280;7.236;2023-04-01T13:45:48;10.83;;;9.73;;
870;SDS011;422;51.280;7.236;2023-04-01T13:48:36;11.13;;;9.93;;
870;SDS011;422;51.280;7.236;2023-04-01T13:51:44;11.80;;;10.20;;
870;SDS011;422;51.280;7.236;2023-04-01T13:57:41;12.40;;;9.00;;
870;SDS011;422;51.280;7.236;2023-04-01T14:00:23;13.17;;;10.90;;
870;SDS011;422;51.280;7.236;2023-04-01T14:03:12;10.03;;;9.03;;
870;SDS011;422;51.280;7.236;2023-04-01T14:06:00;10.50;;;9.50;;
870;SDS011;422;51.280;7.236;2023-04-01T14:11:44;9.83;;;8.93;;
870;SDS011;422;51.280;7.236;2023-04-01T14:14:21;9.03;;;8.13;;
870;SDS011;422;51.280;7.236;2023-04-01T14:23:04;10.23;;;8.30;;
870;SDS011;422;51.280;7.236;2023-04-01T14:26:03;9.50;;;8.37;;
870;SDS011;422;51.280;7.236;2023-04-01T14:28:37;7.90;;;6.93;;
870;SDS011;422;51.280;7.236;2023-04-01T14:31:20;9.40;;;8.50;;
870;SDS011;422;51.280;7.236;2023-04-01T14:33:59;8.97;;;7.37;;
870;SDS011;422;51.280;7.236;2023-04-01T14:36:39;7.73;;;7.00;;
870;SDS011;422;51.280;7.236;2023-04-01T14:42:20;7.67;;;6.53;;
870;SDS011;422;51.280;7.236;2023-04-01T14:45:06;10.17;;;9.07;;
870;SDS011;422;51.280;7.236;2023-04-01T14:47:52;11.30;;;9.37;;
870;SDS011;422;51.280;7.236;2023-04-01T14:50:22;8.40;;;7.57;;
870;SDS011;422;51.280;7.236;2023-04-01T14:52:56;9.83;;;8.20;;
870;SDS011;422;51.280;7.236;2023-04-01T14:55:44;9.70;;;8.70;;
870;SDS011;422;51.280;7.236;2023-04-01T14:58:17;9.77;;;8.13;;
870;SDS011;422;51.280;7.236;2023-04-01T15:00:55;8.83;;;8.03;;
870;SDS011;422;51.280;7.236;2023-04-01T15:03:38;9.53;;;8.03;;
870;SDS011;422;51.280;7.236;2023-04-01T15:09:09;8.70;;;7.80;;
870;SDS011;422;51.280;7.236;2023-04-01T15:11:47;9.53;;;8.57;;
870;SDS011;422;51.280;7.236;2023-04-01T15:14:33;9.20;;;7.40;;
870;SDS011;422;51.280;7.236;2023-04-01T15:17:21;9.87;;;8.87;;
870;SDS011;422;51.280;7.236;2023-04-01T15:20:14;8.63;;;7.73;;
870;SDS011;422;51.280;7.236;2023-04-01T15:23:04;9.97;;;8.97;;
870;SDS011;422;51.280;7.236;2023-04-01T15:25:45;9.77;;;8.77;;
870;SDS011;422;51.280;7.236;2023-04-01T15:28:30;8.97;;;8.07;;
870;SDS011;422;51.280;7.236;2023-04-01T15:31:05;10.80;;;9.70;;
870;SDS011;422;51.280;7.236;2023-04-01T15:33:39;10.10;;;9.03;;
870;SDS011;422;51.280;7.236;2023-04-01T15:36:27;9.90;;;8.27;;
870;SDS011;422;51.280;7.236;2023-04-01T15:39:05;8.10;;;7.30;;
870;SDS011;422;51.280;7.236;2023-04-01T15:41:42;6.80;;;6.07;;
870;SDS011;422;51.280;7.236;2023-04-01T15:44:35;6.93;;;6.23;;
870;SDS011;422;51.280;7.236;2023-04-01T15:47:23;9.83;;;7.67;;
870;SDS011;422;51.280;7.236;2023-04-01T15:50:17;8.90;;;8.00;;
870;SDS011;422;51.280;7.236;2023-04-01T15:53:09;9.37;;;7.07;;
870;SDS011;422;51.280;7.236;2023-04-01T15:55:45;10.70;;;8.47;;
870;SDS011;422;51.280;7.236;2023-04-01T15:58:26;7.33;;;6.33;;
870;SDS011;422;51.280;7.236;2023-04-01T16:01:11;6.73;;;6.13;;
870;SDS011;422;51.280;7.236;2023-04-01T16:03:47;6.10;;;5.33;;
870;SDS011;422;51.280;7.236;2023-04-01T16:06:27;7.83;;;7.03;;
870;SDS011;422;51.280;7.236;2023-04-01T16:09:30;7.93;;;7.13;;
870;SDS011;422;51.280;7.236;2023-04-01T16:12:19;6.90;;;6.20;;
870;SDS011;422;51.280;7.236;2023-04-01T16:15:03;7.10;;;6.40;;
870;SDS011;422;51.280;7.236;2023-04-01T16:17:54;6.43;;;5.53;;
870;SDS011;422;51.280;7.236;2023-04-01T16:20:41;5.37;;;4.87;;
870;SDS011;422;51.280;7.236;2023-04-01T16:23:13;5.00;;;4.40;;
870;SDS011;422;51.280;7.236;2023-04-01T16:25:49;5.27;;;4.77;;
870;SDS011;422;51.280;7.236;2023-04-01T16:28:25;5.50;;;5.00;;
870;SDS011;422;51.280;7.236;2023-04-01T16:30:57;6.07;;;5.50;;
870;SDS011;422;51.280;7.236;2023-04-01T16:33:32;6.60;;;5.90;;
870;SDS011;422;51.280;7.236;2023-04-01T16:36:09;7.93;;;7.13;;
870;SDS011;422;51.280;7.236;2023-04-01T16:38:46;8.13;;;7.20;;
870;SDS011;422;51.280;7.236;2023-04-01T16:41:20;6.13;;;5.47;;
870;SDS011;422;51.280;7.236;2023-04-01T16:43:53;7.70;;;5.97;;
870;SDS011;422;51.280;7.236;2023-04-01T16:46:32;8.07;;;7.27;;
870;SDS011;422;51.280;7.236;2023-04-01T16:49:16;7.27;;;6.57;;
870;SDS011;422;51.280;7.236;2023-04-01T16:51:57;7.60;;;6.80;;
870;SDS011;422;51.280;7.236;2023-04-01T16:54:35;9.60;;;7.90;;
870;SDS011;422;51.280;7.236;2023-04-01T16:57:14;7.97;;;7.13;;
870;SDS011;422;51.280;7.236;2023-04-01T16:59:54;6.77;;;6.13;;
870;SDS011;422;51.280;7.236;2023-04-01T17:02:26;8.17;;;7.00;;
870;SDS011;422;51.280;7.236;2023-04-01T17:04:58;8.03;;;7.23;;
870;SDS011;422;51.280;7.236;2023-04-01T17:07:33;8.60;;;7.57;;
870;SDS011;422;51.280;7.236;2023-04-01T17:10:24;9.40;;;7.40;;
870;SDS011;422;51.280;7.236;2023-04-01T17:13:05;8.13;;;7.33;;
870;SDS011;422;51.280;7.236;2023-04-01T17:15:53;8.80;;;7.97;;
870;SDS011;422;51.280;7.236;2023-04-01T17:18:27;9.13;;;8.23;;
870;SDS011;422;51.280;7.236;2023-04-01T17:21:02;10.20;;;9.00;;
870;SDS011;422;51.280;7.236;2023-04-01T17:23:36;9.07;;;8.17;;
870;SDS011;422;51.280;7.236;2023-04-01T17:26:16;8.63;;;7.57;;
870;SDS011;422;51.280;7.236;2023-04-01T17:28:56;7.97;;;7.10;;
870;SDS011;422;51.280;7.236;2023-04-01T17:31:31;8.30;;;7.40;;
870;SDS011;422;51.280;7.236;2023-04-01T17:37:16;7.50;;;6.63;;
870;SDS011;422;51.280;7.236;2023-04-01T17:39:59;7.37;;;6.67;;
870;SDS011;422;51.280;7.236;2023-04-01T17:42:40;6.83;;;6.13;;
870;SDS011;422;51.280;7.236;2023-04-01T17:45:18;8.00;;;7.20;;
870;SDS011;422;51.280;7.236;2023-04-01T17:47:58;7.50;;;6.80;;
870;SDS011;422;51.280;7.236;2023-04-01T17:50:35;8.50;;;7.70;;
870;SDS011;422;51.280;7.236;2023-04-01T17:53:22;8.23;;;7.20;;
870;SDS011;422;51.280;7.236;2023-04-01T17:58:58;8.43;;;7.60;;
870;SDS011;422;51.280;7.236;2023-04-01T18:01:40;8.00;;;7.20;;
870;SDS011;422;51.280;7.236;2023-04-01T18:04:24;7.77;;;6.97;;
870;SDS011;422;51.280;7.236;2023-04-01T18:09:58;9.20;;;8.20;;
870;SDS011;422;51.280;7.236;2023-04-01T18:12:56;9.93;;;8.90;;
870;SDS011;422;51.280;7.236;2023-04-01T18:16:00;12.73;;;10.33;;
870;SDS011;422;51.280;7.236;2023-04-01T18:18:40;11.47;;;10.27;;
870;SDS011;422;51.280;7.236;2023-04-01T18:21:15;12.40;;;10.20;;
870;SDS011;422;51.280;7.236;2023-04-01T18:23:51;11.73;;;8.40;;
870;SDS011;422;51.280;7.236;2023-04-01T18:26:23;10.37;;;9.37;;
870;SDS011;422;51.280;7.236;2023-04-01T18:28:54;9.70;;;8.47;;
870;SDS011;422;51.280;7.236;2023-04-01T18:31:26;9.47;;;8.43;;
870;SDS011;422;51.280;7.236;2023-04-01T18:34:06;10.17;;;8.73;;
870;SDS011;422;51.280;7.236;2023-04-01T18:36:39;12.40;;;10.30;;
870;SDS011;422;51.280;7.236;2023-04-01T18:39:10;12.17;;;10.40;;
870;SDS011;422;51.280;7.236;2023-04-01T18:41:44;11.87;;;10.23;;